sensor_id;sensor_type;location;lat;lon;timestamp;temperature;humidity
40638;DHT22;26336;44.696;10.622;2022-11-20T00:01:58;11.00;99.90
40638;DHT22;26336;44.696;10.622;2022-11-20T00:05:02;10.90;99.90
40638;DHT22;26336;44.696;10.622;2022-11-20T00:08:06;11.00;99.90
40638;DHT22;26336;44.696;10.622;2022-11-20T00:11:16;10.90;99.90
40638;DHT22;26336;44.696;10.622;2022-11-20T00:14:20;11.00;99.90
40638;DHT22;26336;44.696;10.622;2022-11-20T00:17:23;10.90;99.90
40638;DHT22;26336;44.696;10.622;2022-11-20T00:20:30;10.90;99.90
40638;DHT22;26336;44.696;10.622;2022-11-20T00:23:34;10.80;99.90
40638;DHT22;26336;44.696;10.622;2022-11-20T00:26:38;10.80;99.90
40638;DHT22;26336;44.696;10.622;2022-11-20T00:29:42;10.80;99.90
40638;DHT22;26336;44.696;10.622;2022-11-20T00:32:46;10.70;99.90
40638;DHT22;26336;44.696;10.622;2022-11-20T00:35:50;10.70;99.90
40638;DHT22;26336;44.696;10.622;2022-11-20T00:38:55;10.70;99.90
40638;DHT22;26336;44.696;10.622;2022-11-20T00:42:00;10.70;99.90
40638;DHT22;26336;44.696;10.622;2022-11-20T00:45:04;10.70;99.90
40638;DHT22;26336;44.696;10.622;2022-11-20T00:48:08;10.70;99.90
40638;DHT22;26336;44.696;10.622;2022-11-20T00:51:14;10.80;99.90
40638;DHT22;26336;44.696;10.622;2022-11-20T00:54:18;10.80;99.90
40638;DHT22;26336;44.696;10.622;2022-11-20T00:57:22;10.60;99.90
40638;DHT22;26336;44.696;10.622;2022-11-20T01:00:26;10.50;99.90
40638;DHT22;26336;44.696;10.622;2022-11-20T01:03:42;10.50;99.90
40638;DHT22;26336;44.696;10.622;2022-11-20T01:06:47;10.50;99.90
40638;DHT22;26336;44.696;10.622;2022-11-20T01:09:51;10.60;99.90
40638;DHT22;26336;44.696;10.622;2022-11-20T01:12:55;10.60;99.90
40638;DHT22;26336;44.696;10.622;2022-11-20T01:16:20;10.60;99.90
40638;DHT22;26336;44.696;10.622;2022-11-20T01:19:24;10.60;99.90
40638;DHT22;26336;44.696;10.622;2022-11-20T01:22:28;10.60;99.90
40638;DHT22;26336;44.696;10.622;2022-11-20T01:25:32;10.60;99.90
40638;DHT22;26336;44.696;10.622;2022-11-20T01:28:37;10.60;99.90
40638;DHT22;26336;44.696;10.622;2022-11-20T01:31:42;10.50;99.90
40638;DHT22;26336;44.696;10.622;2022-11-20T01:34:47;10.50;99.90
40638;DHT22;26336;44.696;10.622;2022-11-20T01:37:51;10.50;99.90
40638;DHT22;26336;44.696;10.622;2022-11-20T01:40:55;10.50;99.90
40638;DHT22;26336;44.696;10.622;2022-11-20T01:44:00;10.50;99.90
40638;DHT22;26336;44.696;10.622;2022-11-20T01:47:05;10.60;99.90
40638;DHT22;26336;44.696;10.622;2022-11-20T01:50:14;10.60;99.90
40638;DHT22;26336;44.696;10.622;2022-11-20T01:53:25;10.50;99.90
40638;DHT22;26336;44.696;10.622;2022-11-20T01:56:38;10.50;99.90
40638;DHT22;26336;44.696;10.622;2022-11-20T01:59:51;10.50;99.90
40638;DHT22;26336;44.696;10.622;2022-11-20T02:03:09;10.50;99.90
40638;DHT22;26336;44.696;10.622;2022-11-20T02:06:25;10.50;99.90
40638;DHT22;26336;44.696;10.622;2022-11-20T02:09:34;10.50;99.90
40638;DHT22;26336;44.696;10.622;2022-11-20T02:12:38;10.50;99.90
40638;DHT22;26336;44.696;10.622;2022-11-20T02:16:02;10.30;99.90
40638;DHT22;26336;44.696;10.622;2022-11-20T02:19:17;10.30;99.90
40638;DHT22;26336;44.696;10.622;2022-11-20T02:22:31;10.30;99.90
40638;DHT22;26336;44.696;10.622;2022-11-20T02:25:39;10.30;99.90
40638;DHT22;26336;44.696;10.622;2022-11-20T02:28:44;10.30;99.90
40638;DHT22;26336;44.696;10.622;2022-11-20T02:31:48;10.30;99.90
40638;DHT22;26336;44.696;10.622;2022-11-20T02:34:52;10.30;99.90
40638;DHT22;26336;44.696;10.622;2022-11-20T02:37:59;10.30;99.90
40638;DHT22;26336;44.696;10.622;2022-11-20T02:41:04;10.40;99.90
40638;DHT22;26336;44.696;10.622;2022-11-20T02:44:08;10.40;99.90
40638;DHT22;26336;44.696;10.622;2022-11-20T02:47:15;10.40;99.90
40638;DHT22;26336;44.696;10.622;2022-11-20T02:50:19;10.40;99.90
40638;DHT22;26336;44.696;10.622;2022-11-20T02:53:23;10.40;99.90
40638;DHT22;26336;44.696;10.622;2022-11-20T02:56:27;10.30;99.90
40638;DHT22;26336;44.696;10.622;2022-11-20T02:59:34;10.30;99.90
40638;DHT22;26336;44.696;10.622;2022-11-20T03:02:39;10.20;99.90
40638;DHT22;26336;44.696;10.622;2022-11-20T03:05:43;10.20;99.90
40638;DHT22;26336;44.696;10.622;2022-11-20T03:08:47;10.20;99.90
40638;DHT22;26336;44.696;10.622;2022-11-20T03:11:51;10.20;99.90
40638;DHT22;26336;44.696;10.622;2022-11-20T03:14:55;10.20;99.90
40638;DHT22;26336;44.696;10.622;2022-11-20T03:18:02;10.20;99.90
40638;DHT22;26336;44.696;10.622;2022-11-20T03:21:06;10.10;99.90
40638;DHT22;26336;44.696;10.622;2022-11-20T03:24:10;10.10;99.90
40638;DHT22;26336;44.696;10.622;2022-11-20T03:27:14;10.10;99.90
40638;DHT22;26336;44.696;10.622;2022-11-20T03:30:18;10.00;99.90
40638;DHT22;26336;44.696;10.622;2022-11-20T03:33:22;10.00;99.90
40638;DHT22;26336;44.696;10.622;2022-11-20T03:36:27;9.90;99.90
40638;DHT22;26336;44.696;10.622;2022-11-20T03:39:31;9.80;99.90
40638;DHT22;26336;44.696;10.622;2022-11-20T03:42:35;9.80;99.90
40638;DHT22;26336;44.696;10.622;2022-11-20T03:45:51;9.90;99.90
40638;DHT22;26336;44.696;10.622;2022-11-20T03:48:55;9.90;99.90
40638;DHT22;26336;44.696;10.622;2022-11-20T03:51:59;10.00;99.90
40638;DHT22;26336;44.696;10.622;2022-11-20T03:55:04;10.00;99.90
40638;DHT22;26336;44.696;10.622;2022-11-20T03:58:10;10.00;99.90
40638;DHT22;26336;44.696;10.622;2022-11-20T04:01:16;10.00;99.90
40638;DHT22;26336;44.696;10.622;2022-11-20T04:04:20;10.00;99.90
40638;DHT22;26336;44.696;10.622;2022-11-20T04:07:24;10.00;99.90
40638;DHT22;26336;44.696;10.622;2022-11-20T04:10:28;10.00;99.90
40638;DHT22;26336;44.696;10.622;2022-11-20T04:13:33;10.00;99.90
40638;DHT22;26336;44.696;10.622;2022-11-20T04:16:37;10.00;99.90
40638;DHT22;26336;44.696;10.622;2022-11-20T04:19:41;10.00;99.90
40638;DHT22;26336;44.696;10.622;2022-11-20T04:22:45;9.90;99.90
40638;DHT22;26336;44.696;10.622;2022-11-20T04:25:49;9.80;99.90
40638;DHT22;26336;44.696;10.622;2022-11-20T04:28:57;9.90;99.90
40638;DHT22;26336;44.696;10.622;2022-11-20T04:32:01;9.90;99.90
40638;DHT22;26336;44.696;10.622;2022-11-20T04:35:05;9.90;99.90
40638;DHT22;26336;44.696;10.622;2022-11-20T04:38:09;9.90;99.90
40638;DHT22;26336;44.696;10.622;2022-11-20T04:41:19;9.90;99.90
40638;DHT22;26336;44.696;10.622;2022-11-20T04:44:23;9.90;99.90
40638;DHT22;26336;44.696;10.622;2022-11-20T04:47:27;9.90;99.90
40638;DHT22;26336;44.696;10.622;2022-11-20T04:50:31;9.90;99.90
40638;DHT22;26336;44.696;10.622;2022-11-20T04:53:35;9.80;99.90
40638;DHT22;26336;44.696;10.622;2022-11-20T04:56:39;9.70;99.90
40638;DHT22;26336;44.696;10.622;2022-11-20T04:59:43;9.70;99.90
40638;DHT22;26336;44.696;10.622;2022-11-20T05:02:47;9.70;99.90
40638;DHT22;26336;44.696;10.622;2022-11-20T05:05:54;9.70;99.90
40638;DHT22;26336;44.696;10.622;2022-11-20T05:08:58;9.70;99.90
40638;DHT22;26336;44.696;10.622;2022-11-20T05:12:01;9.70;99.90
40638;DHT22;26336;44.696;10.622;2022-11-20T05:15:05;9.70;99.90
40638;DHT22;26336;44.696;10.622;2022-11-20T05:18:10;9.70;99.90
40638;DHT22;26336;44.696;10.622;2022-11-20T05:21:14;9.70;99.90
40638;DHT22;26336;44.696;10.622;2022-11-20T05:24:18;9.70;99.90
40638;DHT22;26336;44.696;10.622;2022-11-20T05:27:22;9.60;99.90
40638;DHT22;26336;44.696;10.622;2022-11-20T05:30:26;9.50;99.90
40638;DHT22;26336;44.696;10.622;2022-11-20T05:33:30;9.50;99.90
40638;DHT22;26336;44.696;10.622;2022-11-20T05:36:35;9.40;99.90
40638;DHT22;26336;44.696;10.622;2022-11-20T05:39:39;9.20;99.90
40638;DHT22;26336;44.696;10.622;2022-11-20T05:42:42;9.20;99.90
40638;DHT22;26336;44.696;10.622;2022-11-20T05:45:54;9.20;99.90
40638;DHT22;26336;44.696;10.622;2022-11-20T05:48:58;9.10;99.90
40638;DHT22;26336;44.696;10.622;2022-11-20T05:52:02;9.10;99.90
40638;DHT22;26336;44.696;10.622;2022-11-20T05:55:06;9.10;99.90
40638;DHT22;26336;44.696;10.622;2022-11-20T05:58:10;9.20;99.90
40638;DHT22;26336;44.696;10.622;2022-11-20T06:01:20;9.20;99.90
40638;DHT22;26336;44.696;10.622;2022-11-20T06:04:25;9.20;99.90
40638;DHT22;26336;44.696;10.622;2022-11-20T06:07:28;9.20;99.90
40638;DHT22;26336;44.696;10.622;2022-11-20T06:10:32;9.10;99.90
40638;DHT22;26336;44.696;10.622;2022-11-20T06:13:36;9.10;99.90
40638;DHT22;26336;44.696;10.622;2022-11-20T06:16:41;9.20;99.90
40638;DHT22;26336;44.696;10.622;2022-11-20T06:19:47;9.20;99.90
40638;DHT22;26336;44.696;10.622;2022-11-20T06:22:51;9.20;99.90
40638;DHT22;26336;44.696;10.622;2022-11-20T06:25:55;9.20;99.90
40638;DHT22;26336;44.696;10.622;2022-11-20T06:28:59;9.20;99.90
40638;DHT22;26336;44.696;10.622;2022-11-20T06:32:02;9.10;99.90
40638;DHT22;26336;44.696;10.622;2022-11-20T06:35:06;9.10;99.90
40638;DHT22;26336;44.696;10.622;2022-11-20T06:38:10;9.10;99.90
40638;DHT22;26336;44.696;10.622;2022-11-20T06:41:18;9.10;99.90
40638;DHT22;26336;44.696;10.622;2022-11-20T06:44:22;9.10;99.90
40638;DHT22;26336;44.696;10.622;2022-11-20T06:47:26;9.10;99.90
40638;DHT22;26336;44.696;10.622;2022-11-20T06:50:29;9.10;99.90
40638;DHT22;26336;44.696;10.622;2022-11-20T06:53:34;9.10;99.90
40638;DHT22;26336;44.696;10.622;2022-11-20T06:56:38;9.10;99.90
40638;DHT22;26336;44.696;10.622;2022-11-20T06:59:43;9.10;99.90
40638;DHT22;26336;44.696;10.622;2022-11-20T07:02:47;9.10;99.90
40638;DHT22;26336;44.696;10.622;2022-11-20T07:05:51;9.10;99.90
40638;DHT22;26336;44.696;10.622;2022-11-20T07:08:55;9.10;99.90
40638;DHT22;26336;44.696;10.622;2022-11-20T07:11:59;9.10;99.90
40638;DHT22;26336;44.696;10.622;2022-11-20T07:15:03;9.10;99.90
40638;DHT22;26336;44.696;10.622;2022-11-20T07:18:07;9.10;99.90
40638;DHT22;26336;44.696;10.622;2022-11-20T07:21:11;9.20;99.90
40638;DHT22;26336;44.696;10.622;2022-11-20T07:24:15;9.20;99.90
40638;DHT22;26336;44.696;10.622;2022-11-20T07:27:19;9.20;99.90
40638;DHT22;26336;44.696;10.622;2022-11-20T07:30:23;9.20;99.90
40638;DHT22;26336;44.696;10.622;2022-11-20T07:33:27;9.20;99.90
40638;DHT22;26336;44.696;10.622;2022-11-20T07:36:31;9.20;99.90
40638;DHT22;26336;44.696;10.622;2022-11-20T07:39:35;9.20;99.90
40638;DHT22;26336;44.696;10.622;2022-11-20T07:42:46;9.20;99.90
40638;DHT22;26336;44.696;10.622;2022-11-20T07:45:50;9.30;99.90
40638;DHT22;26336;44.696;10.622;2022-11-20T07:48:55;9.30;99.90
40638;DHT22;26336;44.696;10.622;2022-11-20T07:51:59;9.30;99.90
40638;DHT22;26336;44.696;10.622;2022-11-20T07:55:04;9.30;99.90
40638;DHT22;26336;44.696;10.622;2022-11-20T07:58:08;9.30;99.90
40638;DHT22;26336;44.696;10.622;2022-11-20T08:01:12;9.40;99.90
40638;DHT22;26336;44.696;10.622;2022-11-20T08:04:16;9.40;99.90
40638;DHT22;26336;44.696;10.622;2022-11-20T08:07:20;9.40;99.90
40638;DHT22;26336;44.696;10.622;2022-11-20T08:10:24;9.50;99.90
40638;DHT22;26336;44.696;10.622;2022-11-20T08:13:28;9.50;99.90
40638;DHT22;26336;44.696;10.622;2022-11-20T08:16:50;9.50;99.90
40638;DHT22;26336;44.696;10.622;2022-11-20T08:19:54;9.50;99.90
40638;DHT22;26336;44.696;10.622;2022-11-20T08:23:04;9.60;99.90
40638;DHT22;26336;44.696;10.622;2022-11-20T08:26:09;9.60;99.90
40638;DHT22;26336;44.696;10.622;2022-11-20T08:29:13;9.60;99.90
40638;DHT22;26336;44.696;10.622;2022-11-20T08:32:17;9.70;99.90
40638;DHT22;26336;44.696;10.622;2022-11-20T08:35:21;9.70;99.90
40638;DHT22;26336;44.696;10.622;2022-11-20T08:38:25;9.80;99.90
40638;DHT22;26336;44.696;10.622;2022-11-20T08:41:30;9.80;99.90
40638;DHT22;26336;44.696;10.622;2022-11-20T08:44:36;9.80;99.90
40638;DHT22;26336;44.696;10.622;2022-11-20T08:47:40;9.90;99.90
40638;DHT22;26336;44.696;10.622;2022-11-20T08:50:45;9.90;99.90
40638;DHT22;26336;44.696;10.622;2022-11-20T08:53:49;9.90;99.90
40638;DHT22;26336;44.696;10.622;2022-11-20T08:56:53;9.90;99.90
40638;DHT22;26336;44.696;10.622;2022-11-20T09:00:01;10.00;99.90
40638;DHT22;26336;44.696;10.622;2022-11-20T09:03:08;10.00;99.90
40638;DHT22;26336;44.696;10.622;2022-11-20T09:06:12;10.10;99.90
40638;DHT22;26336;44.696;10.622;2022-11-20T09:09:17;10.10;99.90
40638;DHT22;26336;44.696;10.622;2022-11-20T09:12:22;10.20;99.90
40638;DHT22;26336;44.696;10.622;2022-11-20T09:15:26;10.20;99.90
40638;DHT22;26336;44.696;10.622;2022-11-20T09:18:32;10.20;99.90
40638;DHT22;26336;44.696;10.622;2022-11-20T09:21:37;10.30;99.90
40638;DHT22;26336;44.696;10.622;2022-11-20T09:24:43;10.30;99.90
40638;DHT22;26336;44.696;10.622;2022-11-20T09:27:48;10.40;99.90
40638;DHT22;26336;44.696;10.622;2022-11-20T09:30:51;10.40;99.90
40638;DHT22;26336;44.696;10.622;2022-11-20T09:33:55;10.40;99.90
40638;DHT22;26336;44.696;10.622;2022-11-20T09:37:00;10.50;99.90
40638;DHT22;26336;44.696;10.622;2022-11-20T09:40:04;10.50;99.90
40638;DHT22;26336;44.696;10.622;2022-11-20T09:43:22;10.50;99.90
40638;DHT22;26336;44.696;10.622;2022-11-20T09:56:25;10.70;99.90
40638;DHT22;26336;44.696;10.622;2022-11-20T09:59:39;10.80;99.90
40638;DHT22;26336;44.696;10.622;2022-11-20T10:02:55;10.80;99.90
40638;DHT22;26336;44.696;10.622;2022-11-20T10:06:03;10.90;99.90
40638;DHT22;26336;44.696;10.622;2022-11-20T10:16:09;11.00;99.90
40638;DHT22;26336;44.696;10.622;2022-11-20T10:29:32;11.10;99.90
40638;DHT22;26336;44.696;10.622;2022-11-20T10:32:40;11.10;99.90
40638;DHT22;26336;44.696;10.622;2022-11-20T10:35:52;11.20;99.90
40638;DHT22;26336;44.696;10.622;2022-11-20T10:39:01;11.20;99.90
40638;DHT22;26336;44.696;10.622;2022-11-20T10:42:15;11.30;99.90
40638;DHT22;26336;44.696;10.622;2022-11-20T10:45:46;11.20;99.90
40638;DHT22;26336;44.696;10.622;2022-11-20T10:48:55;11.30;99.90
40638;DHT22;26336;44.696;10.622;2022-11-20T10:58:32;11.30;99.90
40638;DHT22;26336;44.696;10.622;2022-11-20T11:01:42;11.30;99.90
40638;DHT22;26336;44.696;10.622;2022-11-20T11:04:49;11.40;99.90
40638;DHT22;26336;44.696;10.622;2022-11-20T11:07:55;11.50;99.90
40638;DHT22;26336;44.696;10.622;2022-11-20T11:11:23;11.50;99.90
40638;DHT22;26336;44.696;10.622;2022-11-20T11:14:28;11.50;99.90
40638;DHT22;26336;44.696;10.622;2022-11-20T11:17:33;11.50;99.90
40638;DHT22;26336;44.696;10.622;2022-11-20T11:20:38;11.60;99.90
40638;DHT22;26336;44.696;10.622;2022-11-20T11:23:43;11.60;99.90
40638;DHT22;26336;44.696;10.622;2022-11-20T11:27:19;11.60;99.90
40638;DHT22;26336;44.696;10.622;2022-11-20T11:30:23;11.60;99.90
40638;DHT22;26336;44.696;10.622;2022-11-20T11:33:32;11.60;99.90
40638;DHT22;26336;44.696;10.622;2022-11-20T11:36:52;11.60;99.90
40638;DHT22;26336;44.696;10.622;2022-11-20T11:39:58;11.70;99.90
40638;DHT22;26336;44.696;10.622;2022-11-20T11:43:16;11.70;99.90
40638;DHT22;26336;44.696;10.622;2022-11-20T11:46:49;11.70;99.90
40638;DHT22;26336;44.696;10.622;2022-11-20T11:50:13;11.80;99.90
40638;DHT22;26336;44.696;10.622;2022-11-20T11:53:21;11.90;99.90
40638;DHT22;26336;44.696;10.622;2022-11-20T11:56:30;11.90;99.90
40638;DHT22;26336;44.696;10.622;2022-11-20T12:03:21;11.80;99.90
40638;DHT22;26336;44.696;10.622;2022-11-20T12:06:26;11.80;99.90
40638;DHT22;26336;44.696;10.622;2022-11-20T12:09:41;11.80;99.90
40638;DHT22;26336;44.696;10.622;2022-11-20T12:13:02;11.90;99.90
40638;DHT22;26336;44.696;10.622;2022-11-20T12:16:12;11.90;99.90
40638;DHT22;26336;44.696;10.622;2022-11-20T12:19:17;11.90;99.90
40638;DHT22;26336;44.696;10.622;2022-11-20T12:25:39;12.00;99.90
40638;DHT22;26336;44.696;10.622;2022-11-20T12:39:34;12.10;99.90
40638;DHT22;26336;44.696;10.622;2022-11-20T12:49:41;12.20;99.90
40638;DHT22;26336;44.696;10.622;2022-11-20T12:53:11;12.20;99.90
40638;DHT22;26336;44.696;10.622;2022-11-20T13:00:18;12.20;99.90
40638;DHT22;26336;44.696;10.622;2022-11-20T13:03:34;12.20;99.90
40638;DHT22;26336;44.696;10.622;2022-11-20T13:06:40;12.30;99.90
40638;DHT22;26336;44.696;10.622;2022-11-20T13:09:47;12.30;99.90
40638;DHT22;26336;44.696;10.622;2022-11-20T13:13:04;12.30;99.90
40638;DHT22;26336;44.696;10.622;2022-11-20T13:16:16;12.30;99.90
40638;DHT22;26336;44.696;10.622;2022-11-20T13:19:26;12.30;99.90
40638;DHT22;26336;44.696;10.622;2022-11-20T13:22:47;12.20;99.90
40638;DHT22;26336;44.696;10.622;2022-11-20T13:25:52;12.20;99.90
40638;DHT22;26336;44.696;10.622;2022-11-20T13:29:16;12.10;99.90
40638;DHT22;26336;44.696;10.622;2022-11-20T13:32:21;12.10;99.90
40638;DHT22;26336;44.696;10.622;2022-11-20T13:35:35;12.10;99.90
40638;DHT22;26336;44.696;10.622;2022-11-20T13:38:47;12.20;99.90
40638;DHT22;26336;44.696;10.622;2022-11-20T13:45:22;12.20;99.90
40638;DHT22;26336;44.696;10.622;2022-11-20T13:48:30;12.20;99.90
40638;DHT22;26336;44.696;10.622;2022-11-20T13:51:47;12.30;99.90
40638;DHT22;26336;44.696;10.622;2022-11-20T14:01:37;12.50;99.90
40638;DHT22;26336;44.696;10.622;2022-11-20T14:04:49;12.50;99.90
40638;DHT22;26336;44.696;10.622;2022-11-20T14:07:57;12.50;99.90
40638;DHT22;26336;44.696;10.622;2022-11-20T14:11:19;12.40;99.90
40638;DHT22;26336;44.696;10.622;2022-11-20T14:14:30;12.30;99.90
40638;DHT22;26336;44.696;10.622;2022-11-20T14:17:36;12.30;99.90
40638;DHT22;26336;44.696;10.622;2022-11-20T14:20:42;12.20;99.90
40638;DHT22;26336;44.696;10.622;2022-11-20T14:23:49;12.20;99.90
40638;DHT22;26336;44.696;10.622;2022-11-20T14:26:55;12.20;99.90
40638;DHT22;26336;44.696;10.622;2022-11-20T14:30:01;12.20;99.90
40638;DHT22;26336;44.696;10.622;2022-11-20T14:33:05;12.20;99.90
40638;DHT22;26336;44.696;10.622;2022-11-20T14:36:18;12.20;99.90
40638;DHT22;26336;44.696;10.622;2022-11-20T14:39:35;12.10;99.90
40638;DHT22;26336;44.696;10.622;2022-11-20T14:42:43;12.20;99.90
40638;DHT22;26336;44.696;10.622;2022-11-20T14:46:08;12.10;99.90
40638;DHT22;26336;44.696;10.622;2022-11-20T14:49:13;12.10;99.90
40638;DHT22;26336;44.696;10.622;2022-11-20T14:52:23;12.10;99.90
40638;DHT22;26336;44.696;10.622;2022-11-20T14:55:38;12.10;99.90
40638;DHT22;26336;44.696;10.622;2022-11-20T14:58:42;12.10;99.90
40638;DHT22;26336;44.696;10.622;2022-11-20T15:01:59;12.10;99.90
40638;DHT22;26336;44.696;10.622;2022-11-20T15:05:03;12.10;99.90
40638;DHT22;26336;44.696;10.622;2022-11-20T15:08:09;12.10;99.90
40638;DHT22;26336;44.696;10.622;2022-11-20T15:11:30;12.10;99.90
40638;DHT22;26336;44.696;10.622;2022-11-20T15:14:36;12.10;99.90
40638;DHT22;26336;44.696;10.622;2022-11-20T15:17:43;12.10;99.90
40638;DHT22;26336;44.696;10.622;2022-11-20T15:20:47;12.00;99.90
40638;DHT22;26336;44.696;10.622;2022-11-20T15:23:51;12.00;99.90
40638;DHT22;26336;44.696;10.622;2022-11-20T15:26:56;11.90;99.90
40638;DHT22;26336;44.696;10.622;2022-11-20T15:30:11;11.90;99.90
40638;DHT22;26336;44.696;10.622;2022-11-20T15:33:17;11.90;99.90
40638;DHT22;26336;44.696;10.622;2022-11-20T15:36:21;11.90;99.90
40638;DHT22;26336;44.696;10.622;2022-11-20T15:39:25;11.80;99.90
40638;DHT22;26336;44.696;10.622;2022-11-20T15:42:30;11.80;99.90
40638;DHT22;26336;44.696;10.622;2022-11-20T15:48:59;11.80;99.90
40638;DHT22;26336;44.696;10.622;2022-11-20T15:52:03;11.90;99.90
40638;DHT22;26336;44.696;10.622;2022-11-20T15:55:10;11.90;99.90
40638;DHT22;26336;44.696;10.622;2022-11-20T15:58:14;11.90;99.90
40638;DHT22;26336;44.696;10.622;2022-11-20T16:01:21;11.90;99.90
40638;DHT22;26336;44.696;10.622;2022-11-20T16:04:28;11.80;99.90
40638;DHT22;26336;44.696;10.622;2022-11-20T16:07:32;11.80;99.90
40638;DHT22;26336;44.696;10.622;2022-11-20T16:10:36;11.80;99.90
40638;DHT22;26336;44.696;10.622;2022-11-20T16:13:41;11.80;99.90
40638;DHT22;26336;44.696;10.622;2022-11-20T16:17:04;11.80;99.90
40638;DHT22;26336;44.696;10.622;2022-11-20T16:20:11;11.80;99.90
40638;DHT22;26336;44.696;10.622;2022-11-20T16:23:15;11.70;99.90
40638;DHT22;26336;44.696;10.622;2022-11-20T16:26:19;11.70;99.90
40638;DHT22;26336;44.696;10.622;2022-11-20T16:29:27;11.70;99.90
40638;DHT22;26336;44.696;10.622;2022-11-20T16:32:32;11.70;99.90
40638;DHT22;26336;44.696;10.622;2022-11-20T16:35:35;11.60;99.90
40638;DHT22;26336;44.696;10.622;2022-11-20T16:38:39;11.60;99.90
40638;DHT22;26336;44.696;10.622;2022-11-20T16:41:44;11.60;99.90
40638;DHT22;26336;44.696;10.622;2022-11-20T16:44:50;11.60;99.90
40638;DHT22;26336;44.696;10.622;2022-11-20T16:47:57;11.50;99.90
40638;DHT22;26336;44.696;10.622;2022-11-20T16:51:02;11.50;99.90
40638;DHT22;26336;44.696;10.622;2022-11-20T16:54:08;11.50;99.90
40638;DHT22;26336;44.696;10.622;2022-11-20T16:57:12;11.40;99.90
40638;DHT22;26336;44.696;10.622;2022-11-20T17:00:16;11.30;99.90
40638;DHT22;26336;44.696;10.622;2022-11-20T17:03:20;11.30;99.90
40638;DHT22;26336;44.696;10.622;2022-11-20T17:06:33;11.30;99.90
40638;DHT22;26336;44.696;10.622;2022-11-20T17:09:38;11.20;99.90
40638;DHT22;26336;44.696;10.622;2022-11-20T17:12:42;11.20;99.90
40638;DHT22;26336;44.696;10.622;2022-11-20T17:15:46;11.20;99.90
40638;DHT22;26336;44.696;10.622;2022-11-20T17:18:50;11.20;99.90
40638;DHT22;26336;44.696;10.622;2022-11-20T17:21:54;11.10;99.90
40638;DHT22;26336;44.696;10.622;2022-11-20T17:24:58;11.10;99.90
40638;DHT22;26336;44.696;10.622;2022-11-20T17:28:02;11.10;99.90
40638;DHT22;26336;44.696;10.622;2022-11-20T17:31:09;11.00;99.90
40638;DHT22;26336;44.696;10.622;2022-11-20T17:34:14;10.90;99.90
40638;DHT22;26336;44.696;10.622;2022-11-20T17:37:18;10.90;99.90
40638;DHT22;26336;44.696;10.622;2022-11-20T17:40:22;10.90;99.90
40638;DHT22;26336;44.696;10.622;2022-11-20T17:43:27;10.90;99.90
40638;DHT22;26336;44.696;10.622;2022-11-20T17:46:33;10.90;99.90
40638;DHT22;26336;44.696;10.622;2022-11-20T17:49:38;10.90;99.90
40638;DHT22;26336;44.696;10.622;2022-11-20T17:52:42;10.90;99.90
40638;DHT22;26336;44.696;10.622;2022-11-20T17:55:54;10.90;99.90
40638;DHT22;26336;44.696;10.622;2022-11-20T17:59:18;10.80;99.90
40638;DHT22;26336;44.696;10.622;2022-11-20T18:02:23;10.80;99.90
40638;DHT22;26336;44.696;10.622;2022-11-20T18:05:27;10.70;99.90
40638;DHT22;26336;44.696;10.622;2022-11-20T18:08:41;10.80;99.90
40638;DHT22;26336;44.696;10.622;2022-11-20T18:11:45;10.70;99.90
40638;DHT22;26336;44.696;10.622;2022-11-20T18:14:50;10.70;99.90
40638;DHT22;26336;44.696;10.622;2022-11-20T18:17:54;10.70;99.90
40638;DHT22;26336;44.696;10.622;2022-11-20T18:20:58;10.60;99.90
40638;DHT22;26336;44.696;10.622;2022-11-20T18:24:03;10.60;99.90
40638;DHT22;26336;44.696;10.622;2022-11-20T18:27:20;10.60;99.90
40638;DHT22;26336;44.696;10.622;2022-11-20T18:30:24;10.60;99.90
40638;DHT22;26336;44.696;10.622;2022-11-20T18:33:29;10.60;99.90
40638;DHT22;26336;44.696;10.622;2022-11-20T18:36:33;10.50;99.90
40638;DHT22;26336;44.696;10.622;2022-11-20T18:39:41;10.50;99.90
40638;DHT22;26336;44.696;10.622;2022-11-20T18:42:46;10.50;99.90
40638;DHT22;26336;44.696;10.622;2022-11-20T18:46:08;10.50;99.90
40638;DHT22;26336;44.696;10.622;2022-11-20T18:49:12;10.50;99.90
40638;DHT22;26336;44.696;10.622;2022-11-20T18:52:39;10.40;99.90
40638;DHT22;26336;44.696;10.622;2022-11-20T18:55:43;10.40;99.90
40638;DHT22;26336;44.696;10.622;2022-11-20T18:58:50;10.40;99.90
40638;DHT22;26336;44.696;10.622;2022-11-20T19:01:54;10.30;99.90
40638;DHT22;26336;44.696;10.622;2022-11-20T19:04:58;10.30;99.90
40638;DHT22;26336;44.696;10.622;2022-11-20T19:08:02;10.30;99.90
40638;DHT22;26336;44.696;10.622;2022-11-20T19:11:08;10.30;99.90
40638;DHT22;26336;44.696;10.622;2022-11-20T19:14:12;10.20;99.90
40638;DHT22;26336;44.696;10.622;2022-11-20T19:17:16;10.20;99.90
40638;DHT22;26336;44.696;10.622;2022-11-20T19:20:24;10.10;99.90
40638;DHT22;26336;44.696;10.622;2022-11-20T19:23:32;10.10;99.90
40638;DHT22;26336;44.696;10.622;2022-11-20T19:26:39;10.10;99.90
40638;DHT22;26336;44.696;10.622;2022-11-20T19:29:46;10.10;99.90
40638;DHT22;26336;44.696;10.622;2022-11-20T19:32:50;10.10;99.90
40638;DHT22;26336;44.696;10.622;2022-11-20T19:35:54;10.00;99.90
40638;DHT22;26336;44.696;10.622;2022-11-20T19:38:59;10.00;99.90
40638;DHT22;26336;44.696;10.622;2022-11-20T19:42:03;10.00;99.90
40638;DHT22;26336;44.696;10.622;2022-11-20T19:45:07;10.00;99.90
40638;DHT22;26336;44.696;10.622;2022-11-20T19:48:14;9.80;99.90
40638;DHT22;26336;44.696;10.622;2022-11-20T19:51:25;9.60;99.90
40638;DHT22;26336;44.696;10.622;2022-11-20T19:54:29;9.60;99.90
40638;DHT22;26336;44.696;10.622;2022-11-20T19:57:33;9.30;99.90
40638;DHT22;26336;44.696;10.622;2022-11-20T20:00:37;9.20;99.90
40638;DHT22;26336;44.696;10.622;2022-11-20T20:03:42;9.30;99.90
40638;DHT22;26336;44.696;10.622;2022-11-20T20:07:18;9.40;99.90
40638;DHT22;26336;44.696;10.622;2022-11-20T20:10:34;9.50;99.90
40638;DHT22;26336;44.696;10.622;2022-11-20T20:13:39;9.50;99.90
40638;DHT22;26336;44.696;10.622;2022-11-20T20:16:53;9.50;99.90
40638;DHT22;26336;44.696;10.622;2022-11-20T20:19:57;9.50;99.90
40638;DHT22;26336;44.696;10.622;2022-11-20T20:23:02;9.60;99.90
40638;DHT22;26336;44.696;10.622;2022-11-20T20:26:22;9.60;99.90
40638;DHT22;26336;44.696;10.622;2022-11-20T20:29:26;9.60;99.90
40638;DHT22;26336;44.696;10.622;2022-11-20T20:32:56;9.70;99.90
40638;DHT22;26336;44.696;10.622;2022-11-20T20:36:00;9.60;99.90
40638;DHT22;26336;44.696;10.622;2022-11-20T20:39:11;9.60;99.90
40638;DHT22;26336;44.696;10.622;2022-11-20T20:42:26;9.50;99.90
40638;DHT22;26336;44.696;10.622;2022-11-20T20:45:52;9.40;99.90